Tonypandy, United Kingdom
Current Conditions -  °F | °C
As of 4:50 PM on Thursday 30 Oct 2014 (Local Time) from EGDX Reporting Station
Few Clouds Few Clouds  
Wind Chill: 59°   Ceiling: Unl
Heat Index: 59°   Visibility: 6mi
Dew Point: 57°   Wind: 7mph
Humidity: 94%   Direction: 140°SE
Pressure: 29.97"   Gusts: NA
Location:  51.62°N, 3.45°W
Report Text: EGDX 301650Z AUTO 14006KT 9999 FEW038/// 15/14 Q1015
Loading
Personal Weather Stations






























Interactive Weather Map New forecast layout! Learn more

10-Day Weather Forecast

Advertisements
Track Severe Weather on mobile